createdAt,value
2022-07-29T00:00:26.167Z,0.00
2022-07-29T00:01:26.151Z,0.00
2022-07-29T00:02:26.188Z,0.00
2022-07-29T00:03:26.293Z,0.00
2022-07-29T00:04:26.187Z,0.00
2022-07-29T00:05:26.172Z,0.00
2022-07-29T00:06:26.065Z,0.00
2022-07-29T00:07:26.086Z,0.00
2022-07-29T00:08:26.074Z,0.00
2022-07-29T00:09:26.065Z,0.00
2022-07-29T00:10:26.159Z,0.00
2022-07-29T00:11:26.045Z,0.00
2022-07-29T00:12:26.893Z,0.00
2022-07-29T00:13:32.195Z,0.00
2022-07-29T00:14:27.145Z,0.00
2022-07-29T00:15:25.942Z,0.00
2022-07-29T00:16:26.021Z,0.00
2022-07-29T00:17:25.966Z,0.00
2022-07-29T00:18:25.920Z,0.00
2022-07-29T00:19:26.293Z,0.00
2022-07-29T00:20:25.887Z,0.00
2022-07-29T00:21:25.894Z,0.00
2022-07-29T00:22:25.908Z,0.00
2022-07-29T00:23:25.837Z,0.00
2022-07-29T00:24:25.830Z,0.00
2022-07-29T00:25:25.851Z,0.00
2022-07-29T00:26:25.816Z,0.00
2022-07-29T00:27:25.780Z,0.00
2022-07-29T00:28:25.804Z,0.00
2022-07-29T00:29:34.668Z,0.00
2022-07-29T00:30:26.813Z,0.00
2022-07-29T00:31:25.844Z,0.00
2022-07-29T00:32:25.741Z,0.00
2022-07-29T00:33:25.721Z,0.00
2022-07-29T00:34:25.694Z,0.00
2022-07-29T00:35:25.739Z,0.00
2022-07-29T00:36:25.697Z,0.00
2022-07-29T00:37:25.697Z,0.00
2022-07-29T00:38:25.644Z,0.00
2022-07-29T00:39:25.652Z,0.00
2022-07-29T00:40:25.669Z,0.00
2022-07-29T00:41:25.612Z,0.00
2022-07-29T00:42:25.585Z,0.00
2022-07-29T00:43:25.612Z,0.00
2022-07-29T00:44:25.564Z,0.00
2022-07-29T00:45:25.554Z,0.00
2022-07-29T00:46:25.676Z,0.00
2022-07-29T00:47:25.611Z,0.00
2022-07-29T00:48:25.706Z,0.00
2022-07-29T00:49:25.547Z,0.00
2022-07-29T00:50:25.535Z,0.00
2022-07-29T00:51:25.516Z,0.00
2022-07-29T00:52:25.457Z,0.00
2022-07-29T00:53:25.446Z,0.00
2022-07-29T00:54:25.460Z,0.00
2022-07-29T00:55:25.448Z,0.00
2022-07-29T00:56:25.464Z,0.00
2022-07-29T00:57:25.390Z,0.00
2022-07-29T00:58:25.378Z,0.00
2022-07-29T00:59:25.478Z,0.00
2022-07-29T01:00:26.428Z,0.00
2022-07-29T01:01:25.504Z,0.00
2022-07-29T01:02:25.455Z,0.00
2022-07-29T01:03:25.308Z,0.00
2022-07-29T01:04:25.321Z,0.00
2022-07-29T01:05:25.320Z,0.00
2022-07-29T01:06:26.321Z,0.00
2022-07-29T01:07:25.257Z,0.00
2022-07-29T01:08:25.250Z,0.00
2022-07-29T01:09:42.964Z,0.00
2022-07-29T01:10:26.308Z,0.00
2022-07-29T01:11:25.224Z,0.00
2022-07-29T01:12:25.197Z,0.00
2022-07-29T01:13:25.361Z,0.00
2022-07-29T01:14:25.277Z,0.00
2022-07-29T01:15:25.205Z,0.00
2022-07-29T01:16:25.272Z,0.00
2022-07-29T01:17:25.170Z,0.00
2022-07-29T01:18:25.142Z,0.00
2022-07-29T01:19:25.103Z,0.00
2022-07-29T01:20:25.113Z,0.00
2022-07-29T01:21:26.132Z,0.00
2022-07-29T01:22:25.120Z,0.00
2022-07-29T01:23:25.079Z,0.00
2022-07-29T01:24:25.060Z,0.00
2022-07-29T01:25:26.100Z,0.00
2022-07-29T01:26:26.006Z,0.00
2022-07-29T01:27:25.050Z,0.00
2022-07-29T01:28:25.035Z,0.00
2022-07-29T01:29:25.012Z,0.00
2022-07-29T01:30:24.977Z,0.00
2022-07-29T01:31:26.508Z,0.00
2022-07-29T01:32:28.932Z,0.00
2022-07-29T01:33:24.963Z,0.00
2022-07-29T01:34:25.009Z,0.00
2022-07-29T01:35:26.364Z,0.00
2022-07-29T01:36:24.880Z,0.00
2022-07-29T01:37:24.925Z,0.00
2022-07-29T01:38:24.907Z,0.00
2022-07-29T01:39:25.776Z,0.00
2022-07-29T01:40:24.836Z,0.00
2022-07-29T01:41:26.098Z,0.00
2022-07-29T01:42:25.068Z,0.00
2022-07-29T01:43:24.864Z,0.00
2022-07-29T01:44:24.764Z,0.00
2022-07-29T01:45:24.756Z,0.00
2022-07-29T01:46:24.779Z,0.00
2022-07-29T01:47:24.815Z,0.00
2022-07-29T01:48:24.756Z,0.00
2022-07-29T01:49:24.802Z,0.00
2022-07-29T01:50:24.735Z,0.00
2022-07-29T01:51:24.676Z,0.00
2022-07-29T01:52:24.679Z,0.00
2022-07-29T01:53:24.688Z,0.00
2022-07-29T01:54:24.739Z,0.00
2022-07-29T01:55:24.667Z,0.00
2022-07-29T01:56:24.602Z,0.00
2022-07-29T01:57:24.596Z,0.00
2022-07-29T01:58:24.595Z,0.00
2022-07-29T01:59:24.621Z,0.00
2022-07-29T02:00:24.648Z,0.00
2022-07-29T02:01:24.745Z,0.00
2022-07-29T02:02:24.541Z,0.00
2022-07-29T02:03:24.665Z,0.00
2022-07-29T02:04:29.537Z,0.00
2022-07-29T02:05:25.655Z,0.00
2022-07-29T02:06:24.549Z,0.00
2022-07-29T02:07:24.502Z,0.00
2022-07-29T02:08:24.450Z,0.00
2022-07-29T02:09:24.510Z,0.00
2022-07-29T02:10:25.718Z,0.00
2022-07-29T02:11:24.435Z,0.00
2022-07-29T02:12:24.407Z,0.00
2022-07-29T02:13:24.389Z,0.00
2022-07-29T02:14:24.402Z,0.00
2022-07-29T02:15:24.537Z,0.00
2022-07-29T02:16:24.684Z,0.00
2022-07-29T02:17:24.345Z,0.00
2022-07-29T02:18:24.335Z,0.00
2022-07-29T02:19:24.351Z,0.00
2022-07-29T02:20:24.323Z,0.00
2022-07-29T02:21:24.915Z,0.00
2022-07-29T02:22:24.893Z,0.00
2022-07-29T02:23:24.288Z,0.00
2022-07-29T02:24:24.343Z,0.00
2022-07-29T02:25:24.230Z,0.00
2022-07-29T02:26:24.260Z,0.00
2022-07-29T02:27:24.288Z,0.00
2022-07-29T02:28:24.196Z,0.00
2022-07-29T02:29:24.269Z,0.00
2022-07-29T02:30:24.186Z,0.00
2022-07-29T02:31:24.301Z,0.00
2022-07-29T02:32:24.155Z,0.00
2022-07-29T02:33:24.133Z,0.00
2022-07-29T02:34:24.167Z,0.00
2022-07-29T02:35:24.098Z,0.00
2022-07-29T02:36:24.130Z,0.00
2022-07-29T02:37:24.088Z,0.00
2022-07-29T02:38:24.075Z,0.00
2022-07-29T02:39:24.049Z,0.00
2022-07-29T02:40:24.029Z,0.00
2022-07-29T02:41:24.097Z,0.00
2022-07-29T02:42:24.049Z,0.00
2022-07-29T02:43:25.519Z,0.00
2022-07-29T02:44:23.980Z,0.00
2022-07-29T02:45:23.997Z,0.00
2022-07-29T02:46:29.305Z,0.00
2022-07-29T02:47:24.962Z,0.00
2022-07-29T02:48:23.924Z,0.00
2022-07-29T02:49:23.994Z,0.00
2022-07-29T02:50:23.913Z,0.00
2022-07-29T02:51:43.940Z,0.00
2022-07-29T02:52:24.913Z,0.00
2022-07-29T02:53:23.870Z,0.00
2022-07-29T02:54:23.872Z,0.00
2022-07-29T02:55:23.904Z,0.00
2022-07-29T02:56:23.874Z,0.00
2022-07-29T02:57:23.821Z,0.00
2022-07-29T02:58:23.827Z,0.00
2022-07-29T02:59:23.786Z,0.00
2022-07-29T03:00:23.835Z,0.00
2022-07-29T03:01:23.841Z,0.00
2022-07-29T03:02:23.818Z,0.00
2022-07-29T03:03:23.747Z,0.00
2022-07-29T03:04:24.037Z,0.00
2022-07-29T03:05:23.738Z,0.00
2022-07-29T03:06:37.363Z,0.00
2022-07-29T03:07:24.737Z,0.00
2022-07-29T03:08:23.733Z,0.00
2022-07-29T03:09:23.697Z,0.00
2022-07-29T03:10:23.658Z,0.00
2022-07-29T03:11:46.209Z,0.00
2022-07-29T03:12:24.684Z,0.00
2022-07-29T03:13:23.597Z,0.00
2022-07-29T03:14:23.606Z,0.00
2022-07-29T03:15:24.024Z,0.00
2022-07-29T03:16:23.644Z,0.00
2022-07-29T03:17:23.586Z,0.00
2022-07-29T03:18:23.547Z,0.00
2022-07-29T03:19:23.518Z,0.00
2022-07-29T03:20:23.511Z,0.00
2022-07-29T03:21:23.488Z,0.00
2022-07-29T03:22:23.543Z,0.00
2022-07-29T03:23:24.503Z,0.00
2022-07-29T03:24:23.579Z,0.00
2022-07-29T03:25:23.509Z,0.00
2022-07-29T03:26:23.457Z,5.62
2022-07-29T03:27:23.469Z,5.62
2022-07-29T03:28:23.421Z,5.62
2022-07-29T03:29:23.395Z,5.62
2022-07-29T03:30:23.409Z,5.62
2022-07-29T03:31:23.469Z,5.62
2022-07-29T03:32:25.191Z,5.62
2022-07-29T03:33:23.352Z,5.62
2022-07-29T03:34:23.497Z,5.62
2022-07-29T03:35:23.367Z,5.62
2022-07-29T03:36:23.335Z,5.62
2022-07-29T03:37:23.287Z,5.62
2022-07-29T03:38:23.348Z,5.62
2022-07-29T03:39:23.257Z,5.62
2022-07-29T03:40:23.246Z,5.62
2022-07-29T03:41:23.224Z,5.62
2022-07-29T03:42:23.237Z,5.62
2022-07-29T03:43:23.278Z,5.62
2022-07-29T03:44:23.618Z,11.25
2022-07-29T03:45:25.148Z,11.25
2022-07-29T03:46:23.462Z,11.25
2022-07-29T03:47:23.158Z,11.25
2022-07-29T03:48:24.185Z,11.25
2022-07-29T03:49:23.191Z,11.25
2022-07-29T03:50:23.115Z,11.25
2022-07-29T03:51:33.162Z,16.88
2022-07-29T03:52:24.089Z,16.88
2022-07-29T03:53:23.158Z,16.88
2022-07-29T03:54:23.062Z,16.88
2022-07-29T03:55:23.048Z,16.88
2022-07-29T03:56:23.077Z,22.50
2022-07-29T03:57:23.069Z,22.50
2022-07-29T03:58:23.381Z,22.50
2022-07-29T03:59:23.062Z,28.12
2022-07-29T04:00:23.005Z,28.12
2022-07-29T04:01:23.041Z,28.12
2022-07-29T04:02:25.290Z,33.75
2022-07-29T04:03:23.991Z,39.38
2022-07-29T04:04:22.988Z,39.38
2022-07-29T04:05:22.930Z,39.38
2022-07-29T04:06:22.898Z,45.00
2022-07-29T04:07:22.972Z,45.00
2022-07-29T04:08:22.874Z,45.00
2022-07-29T04:09:22.938Z,45.00
2022-07-29T04:10:25.241Z,50.62
2022-07-29T04:11:24.683Z,50.62
2022-07-29T04:12:22.819Z,50.62
2022-07-29T04:13:22.899Z,50.62
2022-07-29T04:14:22.860Z,50.62
2022-07-29T04:15:22.802Z,50.62
2022-07-29T04:16:22.918Z,50.62
2022-07-29T04:17:22.814Z,50.62
2022-07-29T04:18:22.740Z,50.62
2022-07-29T04:19:22.726Z,50.62
2022-07-29T04:20:22.907Z,56.25
2022-07-29T04:21:22.713Z,56.25
2022-07-29T04:22:22.783Z,56.25
2022-07-29T04:23:22.745Z,56.25
2022-07-29T04:24:23.761Z,56.25
2022-07-29T04:25:22.717Z,56.25
2022-07-29T04:26:22.654Z,56.25
2022-07-29T04:27:22.644Z,61.88
2022-07-29T04:28:22.623Z,61.88
2022-07-29T04:29:22.676Z,61.88
2022-07-29T04:30:22.651Z,61.88
2022-07-29T04:31:25.889Z,67.50
2022-07-29T04:32:22.570Z,67.50
2022-07-29T04:33:22.549Z,67.50
2022-07-29T04:34:22.545Z,67.50
2022-07-29T04:35:23.520Z,73.12
2022-07-29T04:36:29.097Z,73.12
2022-07-29T04:37:23.504Z,73.12
2022-07-29T04:38:22.497Z,73.12
2022-07-29T04:39:23.328Z,73.12
2022-07-29T04:40:22.524Z,78.75
2022-07-29T04:41:22.472Z,78.75
2022-07-29T04:42:27.503Z,78.75
2022-07-29T04:43:23.515Z,84.38
2022-07-29T04:44:22.480Z,84.38
2022-07-29T04:45:23.419Z,90.00
2022-07-29T04:46:22.534Z,90.00
2022-07-29T04:47:22.371Z,95.62
2022-07-29T04:48:28.216Z,95.62
2022-07-29T04:49:23.575Z,95.62
2022-07-29T04:50:22.347Z,95.62
2022-07-29T04:51:22.363Z,101.25
2022-07-29T04:52:22.309Z,106.88
2022-07-29T04:53:22.274Z,106.88
2022-07-29T04:54:22.355Z,112.50
2022-07-29T04:55:22.252Z,112.50
2022-07-29T04:56:22.258Z,118.12
2022-07-29T04:57:22.388Z,118.12
2022-07-29T04:58:22.208Z,118.12
2022-07-29T04:59:22.281Z,123.75
2022-07-29T05:00:22.194Z,118.12
2022-07-29T05:01:23.319Z,118.12
2022-07-29T05:02:22.302Z,118.12
2022-07-29T05:03:22.218Z,118.12
2022-07-29T05:04:22.170Z,118.12
2022-07-29T05:05:22.196Z,118.12
2022-07-29T05:06:22.143Z,118.12
2022-07-29T05:07:22.092Z,118.12
2022-07-29T05:08:22.383Z,123.75
2022-07-29T05:09:22.077Z,123.75
2022-07-29T05:10:22.086Z,123.75
2022-07-29T05:11:24.966Z,129.38
2022-07-29T05:12:23.012Z,129.38
2022-07-29T05:13:22.019Z,129.38
2022-07-29T05:14:22.127Z,135.00
2022-07-29T05:15:22.056Z,135.00
2022-07-29T05:16:22.050Z,140.62
2022-07-29T05:17:21.976Z,140.62
2022-07-29T05:18:21.975Z,140.62
2022-07-29T05:19:21.980Z,146.25
2022-07-29T05:20:21.928Z,146.25
2022-07-29T05:21:21.906Z,151.88
2022-07-29T05:22:22.029Z,151.88
2022-07-29T05:23:21.889Z,157.50
2022-07-29T05:24:21.868Z,157.50
2022-07-29T05:25:21.989Z,157.50
2022-07-29T05:26:21.919Z,157.50
2022-07-29T05:27:22.811Z,163.12
2022-07-29T05:28:21.872Z,163.12
2022-07-29T05:29:42.922Z,163.12
2022-07-29T05:30:22.832Z,168.75
2022-07-29T05:31:21.840Z,168.75
2022-07-29T05:32:21.795Z,168.75
2022-07-29T05:33:35.002Z,174.38
2022-07-29T05:34:22.736Z,174.38
2022-07-29T05:35:21.727Z,174.38
2022-07-29T05:36:21.742Z,180.00
2022-07-29T05:37:21.712Z,185.62
2022-07-29T05:38:21.778Z,185.62
2022-07-29T05:39:21.671Z,191.25
2022-07-29T05:40:22.350Z,196.88
2022-07-29T05:41:21.749Z,196.88
2022-07-29T05:42:21.635Z,196.88
2022-07-29T05:43:21.605Z,202.50
2022-07-29T05:44:21.624Z,208.12
2022-07-29T05:45:21.593Z,213.75
2022-07-29T05:46:21.745Z,219.38
2022-07-29T05:47:21.563Z,225.00
2022-07-29T05:48:21.546Z,230.62
2022-07-29T05:49:23.142Z,236.25
2022-07-29T05:50:22.544Z,241.88
2022-07-29T05:51:21.508Z,253.12
2022-07-29T05:52:21.533Z,258.75
2022-07-29T05:53:22.375Z,264.38
2022-07-29T05:54:21.554Z,275.62
2022-07-29T05:55:21.521Z,281.25
2022-07-29T05:56:21.446Z,286.88
2022-07-29T05:57:21.432Z,292.50
2022-07-29T05:58:21.414Z,298.12
2022-07-29T05:59:21.487Z,303.75
2022-07-29T06:00:21.406Z,303.75
2022-07-29T06:01:21.515Z,303.75
2022-07-29T06:02:21.366Z,309.38
2022-07-29T06:03:21.371Z,309.38
2022-07-29T06:04:21.533Z,315.00
2022-07-29T06:05:21.414Z,320.62
2022-07-29T06:06:21.367Z,326.25
2022-07-29T06:07:21.320Z,326.25
2022-07-29T06:08:21.335Z,331.88
2022-07-29T06:09:21.372Z,337.50
2022-07-29T06:10:23.935Z,343.12
2022-07-29T06:11:22.258Z,348.75
2022-07-29T06:12:21.373Z,348.75
2022-07-29T06:13:21.359Z,354.38
2022-07-29T06:14:21.214Z,354.38
2022-07-29T06:15:21.214Z,354.38
2022-07-29T06:16:29.910Z,354.38
2022-07-29T06:17:22.203Z,354.38
2022-07-29T06:18:21.191Z,354.38
2022-07-29T06:19:21.132Z,348.75
2022-07-29T06:20:26.995Z,354.38
2022-07-29T06:21:22.171Z,354.38
2022-07-29T06:22:21.157Z,354.38
2022-07-29T06:23:21.084Z,360.00
2022-07-29T06:24:21.166Z,365.62
2022-07-29T06:25:21.093Z,371.25
2022-07-29T06:26:30.320Z,376.88
2022-07-29T06:27:22.106Z,376.88
2022-07-29T06:28:21.126Z,376.88
2022-07-29T06:29:21.037Z,376.88
2022-07-29T06:30:21.050Z,376.88
2022-07-29T06:31:21.757Z,376.88
2022-07-29T06:32:23.002Z,376.88
2022-07-29T06:33:21.961Z,382.50
2022-07-29T06:34:20.984Z,382.50
2022-07-29T06:35:38.765Z,382.50
2022-07-29T06:36:22.961Z,382.50
2022-07-29T06:37:20.897Z,376.88
2022-07-29T06:38:30.780Z,376.88
2022-07-29T06:39:22.151Z,376.88
2022-07-29T06:40:20.861Z,371.25
2022-07-29T06:41:20.900Z,371.25
2022-07-29T06:42:21.007Z,371.25
2022-07-29T06:43:20.833Z,371.25
2022-07-29T06:44:20.812Z,371.25
2022-07-29T06:45:20.860Z,365.62
2022-07-29T06:46:21.217Z,365.62
2022-07-29T06:47:20.903Z,371.25
2022-07-29T06:48:20.831Z,371.25
2022-07-29T06:49:20.901Z,382.50
2022-07-29T06:50:20.764Z,388.12
2022-07-29T06:51:22.400Z,393.75
2022-07-29T06:52:20.773Z,410.62
2022-07-29T06:53:20.832Z,416.25
2022-07-29T06:54:20.676Z,427.50
2022-07-29T06:55:25.003Z,438.75
2022-07-29T06:56:21.452Z,450.00
2022-07-29T06:57:20.683Z,455.62
2022-07-29T06:58:20.713Z,461.25
2022-07-29T06:59:26.213Z,466.88
2022-07-29T07:00:21.741Z,461.25
2022-07-29T07:01:20.641Z,455.62
2022-07-29T07:02:20.613Z,455.62
2022-07-29T07:03:20.617Z,450.00
2022-07-29T07:04:21.193Z,450.00
2022-07-29T07:05:20.526Z,450.00
2022-07-29T07:06:20.518Z,450.00
2022-07-29T07:07:20.553Z,455.62
2022-07-29T07:08:20.512Z,466.88
2022-07-29T07:09:20.591Z,472.50
2022-07-29T07:10:20.479Z,483.75
2022-07-29T07:11:20.461Z,495.00
2022-07-29T07:12:20.444Z,506.25
2022-07-29T07:13:20.431Z,517.50
2022-07-29T07:14:21.066Z,523.12
2022-07-29T07:15:20.440Z,528.75
2022-07-29T07:16:20.421Z,528.75
2022-07-29T07:17:20.408Z,534.38
2022-07-29T07:18:20.360Z,528.75
2022-07-29T07:19:20.402Z,528.75
2022-07-29T07:20:20.370Z,523.12
2022-07-29T07:21:21.131Z,523.12
2022-07-29T07:22:20.322Z,517.50
2022-07-29T07:23:20.499Z,517.50
2022-07-29T07:24:20.351Z,517.50
2022-07-29T07:25:20.271Z,511.88
2022-07-29T07:26:20.301Z,500.62
2022-07-29T07:27:20.309Z,495.00
2022-07-29T07:28:24.570Z,489.38
2022-07-29T07:29:20.265Z,478.12
2022-07-29T07:30:20.276Z,466.88
2022-07-29T07:31:20.245Z,455.62
2022-07-29T07:32:20.209Z,450.00
2022-07-29T07:33:20.188Z,450.00
2022-07-29T07:34:28.280Z,450.00
2022-07-29T07:35:21.156Z,450.00
2022-07-29T07:36:20.128Z,450.00
2022-07-29T07:37:20.266Z,450.00
2022-07-29T07:38:20.138Z,450.00
2022-07-29T07:39:20.138Z,444.38
2022-07-29T07:40:20.086Z,444.38
2022-07-29T07:41:20.066Z,438.75
2022-07-29T07:42:20.056Z,438.75
2022-07-29T07:43:20.119Z,433.12
2022-07-29T07:44:20.390Z,433.12
2022-07-29T07:45:20.133Z,433.12
2022-07-29T07:46:20.208Z,433.12
2022-07-29T07:47:19.999Z,433.12
2022-07-29T07:48:19.979Z,438.75
2022-07-29T07:49:21.905Z,444.38
2022-07-29T07:50:20.311Z,455.62
2022-07-29T07:51:19.993Z,466.88
2022-07-29T07:52:19.926Z,478.12
2022-07-29T07:53:19.962Z,489.38
2022-07-29T07:54:21.125Z,506.25
2022-07-29T07:55:19.907Z,517.50
2022-07-29T07:56:19.904Z,528.75
2022-07-29T07:57:19.914Z,540.00
2022-07-29T07:58:19.905Z,545.62
2022-07-29T07:59:19.836Z,551.25
2022-07-29T08:00:19.910Z,551.25
2022-07-29T08:01:19.975Z,545.62
2022-07-29T08:02:19.911Z,545.62
2022-07-29T08:03:19.764Z,551.25
2022-07-29T08:04:24.944Z,556.88
2022-07-29T08:05:20.757Z,562.50
2022-07-29T08:06:19.831Z,573.75
2022-07-29T08:07:19.766Z,590.62
2022-07-29T08:08:19.739Z,607.50
2022-07-29T08:09:28.837Z,630.00
2022-07-29T08:10:20.763Z,652.50
2022-07-29T08:11:19.710Z,669.38
2022-07-29T08:12:19.686Z,691.88
2022-07-29T08:13:19.730Z,714.38
2022-07-29T08:14:19.695Z,736.88
2022-07-29T08:15:19.714Z,742.50
2022-07-29T08:16:19.637Z,753.75
2022-07-29T08:17:19.710Z,753.75
2022-07-29T08:18:19.567Z,753.75
2022-07-29T08:19:19.552Z,753.75
2022-07-29T08:20:19.603Z,748.12
2022-07-29T08:21:19.560Z,759.38
2022-07-29T08:22:19.537Z,753.75
2022-07-29T08:23:19.514Z,748.12
2022-07-29T08:24:19.504Z,742.50
2022-07-29T08:25:19.601Z,714.38
2022-07-29T08:26:19.782Z,697.50
2022-07-29T08:27:41.919Z,686.25
2022-07-29T08:28:20.558Z,675.00
2022-07-29T08:29:20.152Z,675.00
2022-07-29T08:30:19.493Z,675.00
2022-07-29T08:31:19.460Z,675.00
2022-07-29T08:32:43.416Z,658.12
2022-07-29T08:33:20.473Z,652.50
2022-07-29T08:34:19.479Z,646.88
2022-07-29T08:35:20.383Z,641.25
2022-07-29T08:36:19.338Z,641.25
2022-07-29T08:37:19.563Z,646.88
2022-07-29T08:38:21.287Z,646.88
2022-07-29T08:39:19.324Z,658.12
2022-07-29T08:40:19.394Z,663.75
2022-07-29T08:41:19.259Z,663.75
2022-07-29T08:42:19.291Z,669.38
2022-07-29T08:43:19.282Z,669.38
2022-07-29T08:44:27.488Z,669.38
2022-07-29T08:45:20.271Z,669.38
2022-07-29T08:46:19.308Z,675.00
2022-07-29T08:47:19.342Z,680.62
2022-07-29T08:48:19.183Z,686.25
2022-07-29T08:49:19.197Z,691.88
2022-07-29T08:50:19.414Z,697.50
2022-07-29T08:51:19.893Z,703.12
2022-07-29T08:52:19.128Z,708.75
2022-07-29T08:53:19.155Z,720.00
2022-07-29T08:54:19.119Z,731.25
2022-07-29T08:55:23.465Z,736.88
2022-07-29T08:56:22.778Z,742.50
2022-07-29T08:57:20.054Z,748.12
2022-07-29T08:58:23.106Z,748.12
2022-07-29T08:59:20.202Z,753.75
2022-07-29T09:00:19.247Z,759.38
2022-07-29T09:01:19.583Z,765.00
2022-07-29T09:02:18.988Z,770.62
2022-07-29T09:03:25.774Z,781.88
2022-07-29T09:04:20.003Z,787.50
2022-07-29T09:05:18.987Z,787.50
2022-07-29T09:06:18.982Z,787.50
2022-07-29T09:07:18.931Z,787.50
2022-07-29T09:08:18.932Z,781.88
2022-07-29T09:09:18.901Z,781.88
2022-07-29T09:10:19.860Z,776.25
2022-07-29T09:11:19.143Z,776.25
2022-07-29T09:12:28.728Z,776.25
2022-07-29T09:13:19.878Z,776.25
2022-07-29T09:14:18.834Z,776.25
2022-07-29T09:15:18.884Z,776.25
2022-07-29T09:16:31.866Z,776.25
2022-07-29T09:17:21.815Z,776.25
2022-07-29T09:18:19.767Z,776.25
2022-07-29T09:19:19.768Z,770.62
2022-07-29T09:20:18.937Z,765.00
2022-07-29T09:21:18.814Z,753.75
2022-07-29T09:22:18.755Z,748.12
2022-07-29T09:23:24.196Z,742.50
2022-07-29T09:24:19.749Z,731.25
2022-07-29T09:25:18.769Z,725.62
2022-07-29T09:26:18.839Z,720.00
2022-07-29T09:27:18.685Z,708.75
2022-07-29T09:28:18.687Z,708.75
2022-07-29T09:29:18.680Z,703.12
2022-07-29T09:30:31.299Z,703.12
2022-07-29T09:31:19.695Z,703.12
2022-07-29T09:32:18.740Z,703.12
2022-07-29T09:33:18.609Z,703.12
2022-07-29T09:34:18.610Z,703.12
2022-07-29T09:35:18.660Z,697.50
2022-07-29T09:36:18.603Z,703.12
2022-07-29T09:37:18.629Z,697.50
2022-07-29T09:38:18.534Z,691.88
2022-07-29T09:39:18.527Z,691.88
2022-07-29T09:40:18.565Z,686.25
2022-07-29T09:41:19.442Z,686.25
2022-07-29T09:42:19.953Z,680.62
2022-07-29T09:43:18.477Z,675.00
2022-07-29T09:44:18.495Z,669.38
2022-07-29T09:45:18.486Z,663.75
2022-07-29T09:46:18.499Z,658.12
2022-07-29T09:47:18.467Z,658.12
2022-07-29T09:48:18.432Z,658.12
2022-07-29T09:49:18.597Z,663.75
2022-07-29T09:50:18.379Z,669.38
2022-07-29T09:51:20.774Z,675.00
2022-07-29T09:52:18.433Z,680.62
2022-07-29T09:53:18.395Z,691.88
2022-07-29T09:54:18.857Z,697.50
2022-07-29T09:55:19.976Z,714.38
2022-07-29T09:56:18.745Z,714.38
2022-07-29T09:57:19.352Z,736.88
2022-07-29T09:58:21.013Z,731.25
2022-07-29T09:59:18.303Z,736.88
2022-07-29T10:00:18.308Z,736.88
2022-07-29T10:01:18.377Z,742.50
2022-07-29T10:02:23.571Z,753.75
2022-07-29T10:03:19.411Z,765.00
2022-07-29T10:04:18.355Z,781.88
2022-07-29T10:05:18.186Z,798.75
2022-07-29T10:06:18.175Z,798.75
2022-07-29T10:07:18.634Z,787.50
2022-07-29T10:08:18.386Z,770.62
2022-07-29T10:09:18.188Z,753.75
2022-07-29T10:10:18.200Z,731.25
2022-07-29T10:11:18.161Z,697.50
2022-07-29T10:12:18.368Z,680.62
2022-07-29T10:13:20.126Z,663.75
2022-07-29T10:14:18.091Z,618.75
2022-07-29T10:15:18.084Z,596.25
2022-07-29T10:16:18.159Z,573.75
2022-07-29T10:17:18.087Z,562.50
2022-07-29T10:18:18.042Z,551.25
2022-07-29T10:19:18.103Z,551.25
2022-07-29T10:20:18.231Z,540.00
2022-07-29T10:21:35.083Z,545.62
2022-07-29T10:22:43.235Z,540.00
2022-07-29T10:23:19.063Z,540.00
2022-07-29T10:24:17.963Z,545.62
2022-07-29T10:25:17.992Z,551.25
2022-07-29T10:26:17.910Z,556.88
2022-07-29T10:27:17.918Z,551.25
2022-07-29T10:28:17.883Z,556.88
2022-07-29T10:29:18.929Z,562.50
2022-07-29T10:30:17.864Z,573.75
2022-07-29T10:31:18.000Z,601.88
2022-07-29T10:32:18.827Z,618.75
2022-07-29T10:33:17.856Z,618.75
2022-07-29T10:34:17.903Z,607.50
2022-07-29T10:35:17.948Z,596.25
2022-07-29T10:36:18.598Z,601.88
2022-07-29T10:37:18.690Z,596.25
2022-07-29T10:38:17.805Z,596.25
2022-07-29T10:39:17.851Z,601.88
2022-07-29T10:40:18.000Z,607.50
2022-07-29T10:41:19.406Z,607.50
2022-07-29T10:42:19.964Z,585.00
2022-07-29T10:43:17.702Z,579.38
2022-07-29T10:44:19.476Z,579.38
2022-07-29T10:45:18.815Z,579.38
2022-07-29T10:46:17.934Z,607.50
2022-07-29T10:47:17.683Z,630.00
2022-07-29T10:48:19.240Z,658.12
2022-07-29T10:49:18.107Z,680.62
2022-07-29T10:50:18.083Z,708.75
2022-07-29T10:52:19.588Z,753.75
2022-07-29T10:53:18.856Z,770.62
2022-07-29T10:54:17.898Z,798.75
2022-07-29T10:55:17.608Z,821.25
2022-07-29T10:56:17.947Z,832.50
2022-07-29T10:57:17.556Z,838.12
2022-07-29T10:58:18.094Z,832.50
2022-07-29T10:59:17.508Z,826.88
2022-07-29T11:00:17.478Z,815.62
2022-07-29T11:01:18.421Z,798.75
2022-07-29T11:02:46.462Z,776.25
2022-07-29T11:03:18.502Z,742.50
2022-07-29T11:04:17.499Z,720.00
2022-07-29T11:05:17.926Z,697.50
2022-07-29T11:06:26.783Z,675.00
2022-07-29T11:07:18.505Z,663.75
2022-07-29T11:08:20.368Z,658.12
2022-07-29T11:09:20.364Z,652.50
2022-07-29T11:10:18.427Z,652.50
2022-07-29T11:11:17.563Z,652.50
2022-07-29T11:12:17.344Z,646.88
2022-07-29T11:13:18.293Z,646.88
2022-07-29T11:14:17.359Z,658.12
2022-07-29T11:15:18.104Z,675.00
2022-07-29T11:16:20.110Z,691.88
2022-07-29T11:17:18.414Z,708.75
2022-07-29T11:18:18.718Z,725.62
2022-07-29T11:19:26.206Z,748.12
2022-07-29T11:20:18.265Z,770.62
2022-07-29T11:21:18.048Z,781.88
2022-07-29T11:22:18.185Z,793.12
2022-07-29T11:23:17.406Z,798.75
2022-07-29T11:25:18.168Z,810.00
2022-07-29T11:26:18.956Z,815.62
2022-07-29T11:27:20.114Z,826.88
2022-07-29T11:28:23.176Z,832.50
2022-07-29T11:29:18.128Z,849.38
2022-07-29T11:30:17.460Z,860.62
2022-07-29T11:31:17.361Z,866.25
2022-07-29T11:32:22.876Z,860.62
2022-07-29T11:33:18.975Z,855.00
2022-07-29T11:34:18.073Z,849.38
2022-07-29T11:35:19.241Z,843.75
2022-07-29T11:36:17.646Z,843.75
2022-07-29T11:37:17.780Z,838.12
2022-07-29T11:38:17.013Z,832.50
2022-07-29T11:39:17.845Z,832.50
2022-07-29T11:40:17.286Z,826.88
2022-07-29T11:41:16.995Z,826.88
2022-07-29T11:42:17.071Z,821.25
2022-07-29T11:43:17.937Z,815.62
2022-07-29T11:44:18.175Z,815.62
2022-07-29T11:45:43.764Z,815.62
2022-07-29T11:46:17.990Z,810.00
2022-07-29T11:47:18.043Z,804.38
2022-07-29T11:48:28.888Z,798.75
2022-07-29T11:49:17.936Z,798.75
2022-07-29T11:50:16.861Z,804.38
2022-07-29T11:51:17.749Z,810.00
2022-07-29T11:52:16.861Z,815.62
2022-07-29T11:53:18.035Z,821.25
2022-07-29T11:54:16.819Z,832.50
2022-07-29T11:55:16.799Z,832.50
2022-07-29T11:56:17.126Z,832.50
2022-07-29T11:57:16.793Z,838.12
2022-07-29T11:58:16.882Z,838.12
2022-07-29T11:59:16.798Z,838.12
2022-07-29T12:00:18.708Z,838.12
2022-07-29T12:01:17.777Z,838.12
2022-07-29T12:02:37.058Z,838.12
2022-07-29T12:03:17.994Z,838.12
2022-07-29T12:04:17.065Z,832.50
2022-07-29T12:05:22.260Z,832.50
2022-07-29T12:06:18.527Z,821.25
2022-07-29T12:07:16.660Z,810.00
2022-07-29T12:08:16.647Z,804.38
2022-07-29T12:09:16.588Z,787.50
2022-07-29T12:10:19.474Z,776.25
2022-07-29T12:11:16.610Z,776.25
2022-07-29T12:12:16.558Z,776.25
2022-07-29T12:13:16.590Z,770.62
2022-07-29T12:14:16.568Z,776.25
2022-07-29T12:15:17.460Z,770.62
2022-07-29T12:16:16.626Z,770.62
2022-07-29T12:17:17.553Z,765.00
2022-07-29T12:18:16.480Z,770.62
2022-07-29T12:19:16.502Z,759.38
2022-07-29T12:20:16.469Z,759.38
2022-07-29T12:21:16.425Z,759.38
2022-07-29T12:22:16.460Z,759.38
2022-07-29T12:23:16.468Z,759.38
2022-07-29T12:24:16.444Z,753.75
2022-07-29T12:25:32.421Z,748.12
2022-07-29T12:26:25.568Z,742.50
2022-07-29T12:27:17.401Z,736.88
2022-07-29T12:28:16.530Z,736.88
2022-07-29T12:29:20.362Z,736.88
2022-07-29T12:30:17.461Z,748.12
2022-07-29T12:31:42.900Z,759.38
2022-07-29T12:32:19.666Z,770.62
2022-07-29T12:33:16.276Z,765.00
2022-07-29T12:34:16.290Z,753.75
2022-07-29T12:35:16.281Z,748.12
2022-07-29T12:36:18.031Z,742.50
2022-07-29T12:37:16.265Z,736.88
2022-07-29T12:38:16.303Z,731.25
2022-07-29T12:39:16.213Z,731.25
2022-07-29T12:40:16.193Z,742.50
2022-07-29T12:41:17.205Z,748.12
2022-07-29T12:42:18.668Z,753.75
2022-07-29T12:43:16.229Z,759.38
2022-07-29T12:44:16.148Z,765.00
2022-07-29T12:45:16.148Z,770.62
2022-07-29T12:46:16.273Z,781.88